Time;durP1;ratioP1;P1;durP2;ratioP2;P2;SDS_P1;SDS_P2;PMS_P1;PMS_P2;Temp;Humidity;BMP_temperature;BMP_pressure;BME280_temperature;BME280_humidity;BME280_pressure;Samples;Min_cycle;Max_cycle;Signal;HPM_P1;HPM_P2
2022/10/10 00:00:45;;;;;;;22.40;9.43;;;;;;;8.85;100.00;99908.53;4310149;33;20056;-70
2022/10/10 00:03:28;;;;;;;19.05;10.32;;;;;;;9.07;100.00;99907.13;4311679;33;20032;-70
2022/10/10 00:05:54;;;;;;;22.10;10.20;;;;;;;9.04;100.00;99859.22;4308071;33;20462;-72
2022/10/10 00:08:21;;;;;;;21.00;10.60;;;;;;;8.81;100.00;99842.88;4309304;33;20465;-70
2022/10/10 00:10:47;;;;;;;16.70;9.02;;;;;;;9.28;100.00;99886.28;4308770;33;20028;-69
2022/10/10 00:13:14;;;;;;;23.27;9.88;;;;;;;9.45;100.00;99875.81;4291788;33;20059;-70
2022/10/10 00:15:41;;;;;;;17.60;8.68;;;;;;;9.03;100.00;99872.84;4294621;33;20063;-70
2022/10/10 00:18:07;;;;;;;17.33;9.45;;;;;;;8.85;100.00;99881.69;4293641;33;20030;-73
2022/10/10 00:20:34;;;;;;;17.37;8.90;;;;;;;8.85;100.00;99879.00;4299901;33;20105;-70
2022/10/10 00:23:00;;;;;;;19.08;8.68;;;;;;;9.22;100.00;99863.00;4291850;33;20394;-71
2022/10/10 00:25:27;;;;;;;14.82;7.90;;;;;;;9.41;100.00;99870.06;4293643;33;20049;-71
2022/10/10 00:27:54;;;;;;;16.10;8.50;;;;;;;9.38;100.00;99870.50;4294134;33;20049;-70
2022/10/10 00:30:20;;;;;;;18.62;8.32;;;;;;;9.53;100.00;99820.94;4292118;33;20082;-71
2022/10/10 00:32:47;;;;;;;18.95;7.85;;;;;;;9.93;100.00;99861.66;4306878;33;20084;-71
2022/10/10 00:35:13;;;;;;;19.55;9.00;;;;;;;9.97;100.00;99857.47;4301146;33;20053;-71
2022/10/10 00:37:39;;;;;;;16.75;8.43;;;;;;;9.48;100.00;99847.66;4296248;33;20136;-71
2022/10/10 00:40:06;;;;;;;21.27;9.25;;;;;;;9.01;100.00;99865.00;4311338;33;20036;-69
2022/10/10 00:42:33;;;;;;;19.08;7.60;;;;;;;8.95;100.00;99812.19;4311208;33;20171;-75
2022/10/10 00:45:21;;;;;;;15.98;8.40;;;;;;;9.50;100.00;99857.16;4310159;33;20615;-69
2022/10/10 00:47:50;;;;;;;17.77;8.68;;;;;;;9.74;100.00;99858.13;4317157;33;20062;-70
2022/10/10 00:50:19;;;;;;;18.15;8.02;;;;;;;9.73;100.00;99848.44;4309917;33;20074;-74
2022/10/10 00:52:46;;;;;;;13.75;7.97;;;;;;;9.31;100.00;99810.59;4310325;33;20061;-70
2022/10/10 00:55:13;;;;;;;19.70;9.40;;;;;;;9.17;100.00;99857.47;4316433;33;20041;-69
2022/10/10 00:57:41;;;;;;;17.37;9.02;;;;;;;9.03;100.00;99857.59;4309334;33;20080;-70
2022/10/10 01:00:08;;;;;;;18.42;8.60;;;;;;;8.87;100.00;99858.09;4323243;33;20070;-74
2022/10/10 01:02:35;;;;;;;19.15;10.05;;;;;;;8.96;100.00;99813.81;4315994;33;20408;-69
2022/10/10 01:05:02;;;;;;;21.52;9.15;;;;;;;8.80;100.00;99792.91;4309085;33;20341;-69
2022/10/10 01:07:30;;;;;;;16.23;9.23;;;;;;;8.95;100.00;99808.66;4298583;33;20049;-69
2022/10/10 01:10:01;;;;;;;18.10;8.65;;;;;;;8.63;100.00;99820.28;4296049;33;20059;-70
2022/10/10 01:12:52;;;;;;;13.95;8.52;;;;;;;8.44;100.00;99824.75;4302870;33;20067;-69
2022/10/10 01:15:27;;;;;;;21.92;9.18;;;;;;;9.25;100.00;99870.59;4304614;33;20037;-70
2022/10/10 01:18:09;;;;;;;16.45;8.98;;;;;;;9.04;100.00;99834.22;4307473;33;20037;-70
2022/10/10 01:20:53;;;;;;;17.30;8.05;;;;;;;8.39;100.00;99775.41;4310170;33;20024;-69
2022/10/10 01:23:45;;;;;;;20.45;9.27;;;;;;;8.92;100.00;99860.97;4307148;33;20056;-73
2022/10/10 01:26:42;;;;;;;16.90;8.05;;;;;;;8.97;100.00;99855.75;4309605;33;20418;-69
2022/10/10 01:29:37;;;;;;;25.33;8.52;;;;;;;8.51;100.00;99814.78;4309225;33;20052;-69
2022/10/10 01:32:17;;;;;;;13.93;8.13;;;;;;;8.93;100.00;99816.13;4308323;33;20029;-69
2022/10/10 01:34:54;;;;;;;15.48;8.80;;;;;;;8.86;100.00;99811.63;4308653;33;20130;-70
2022/10/10 01:37:26;;;;;;;15.68;8.55;;;;;;;8.96;100.00;99856.78;4308700;33;20489;-69
2022/10/10 01:40:04;;;;;;;27.13;9.55;;;;;;;8.70;100.00;99858.63;4308393;33;20041;-71
2022/10/10 01:42:33;;;;;;;20.17;9.10;;;;;;;8.66;100.00;99851.22;4316712;33;20104;-70
2022/10/10 01:45:00;;;;;;;15.57;9.68;;;;;;;7.99;100.00;99798.75;4323728;33;20066;-69
2022/10/10 01:47:26;;;;;;;22.98;10.45;;;;;;;8.40;100.00;99860.25;4323279;33;20048;-70
2022/10/10 01:50:00;;;;;;;22.98;9.90;;;;;;;8.08;100.00;99844.09;4321517;33;20429;-69
2022/10/10 01:52:42;;;;;;;17.10;9.15;;;;;;;8.11;100.00;99846.38;4317539;33;20036;-69
2022/10/10 01:55:36;;;;;;;16.95;9.35;;;;;;;8.76;100.00;99842.69;4328219;33;20075;-71
2022/10/10 01:58:27;;;;;;;16.40;9.30;;;;;;;9.02;100.00;99836.31;4300875;33;20105;-69
2022/10/10 02:01:06;;;;;;;21.62;9.18;;;;;;;9.08;100.00;99838.94;4305094;33;20070;-70
2022/10/10 02:03:42;;;;;;;19.60;10.15;;;;;;;8.29;100.00;99754.44;4303501;33;20470;-68
2022/10/10 02:06:40;;;;;;;16.50;10.45;;;;;;;8.54;100.00;99826.97;4264838;33;20067;-69
2022/10/10 02:09:12;;;;;;;15.75;9.52;;;;;;;8.27;100.00;99784.16;4241004;33;20483;-69
2022/10/10 02:11:40;;;;;;;24.65;9.38;;;;;;;8.48;100.00;99827.81;4236751;33;20068;-70
2022/10/10 02:14:22;;;;;;;14.90;9.27;;;;;;;8.58;100.00;99790.56;4238007;33;20039;-73
2022/10/10 02:16:53;;;;;;;19.75;9.88;;;;;;;8.89;100.00;99786.22;4251830;33;20065;-69
2022/10/10 02:19:22;;;;;;;20.08;10.75;;;;;;;8.96;100.00;99772.72;4210030;34;20096;-68
2022/10/10 02:21:51;;;;;;;18.27;10.15;;;;;;;9.20;100.00;99824.78;4205359;34;20185;-68
2022/10/10 02:24:21;;;;;;;22.08;10.45;;;;;;;9.18;100.00;99816.13;4193238;34;20035;-69
2022/10/10 02:26:55;;;;;;;17.87;9.75;;;;;;;8.97;100.00;99812.78;4183888;34;20047;-69
2022/10/10 02:29:27;;;;;;;18.65;10.32;;;;;;;8.46;100.00;99813.81;4197516;34;20035;-69
2022/10/10 02:32:19;;;;;;;23.52;9.93;;;;;;;8.34;100.00;99808.25;4207208;33;20328;-74
2022/10/10 02:34:50;;;;;;;15.30;10.85;;;;;;;8.37;100.00;99835.47;4222525;33;20093;-70
2022/10/10 02:37:17;;;;;;;19.98;10.18;;;;;;;8.44;100.00;99826.59;4237418;33;20038;-69
2022/10/10 02:39:50;;;;;;;21.33;10.63;;;;;;;8.28;100.00;99823.38;4269476;33;20041;-72
2022/10/10 02:42:21;;;;;;;23.05;11.60;;;;;;;8.25;100.00;99780.87;4271192;33;20080;-69
2022/10/10 02:44:47;;;;;;;15.88;10.25;;;;;;;8.67;100.00;99826.84;4268517;33;20107;-70
2022/10/10 02:47:14;;;;;;;23.75;12.30;;;;;;;8.62;100.00;99797.16;4288521;33;20033;-68
2022/10/10 02:49:41;;;;;;;20.60;10.27;;;;;;;8.29;100.00;99776.69;4286895;33;20071;-73
2022/10/10 02:52:08;;;;;;;38.40;11.00;;;;;;;8.40;100.00;99820.00;4248753;33;20050;-68
2022/10/10 02:54:34;;;;;;;22.00;11.80;;;;;;;7.86;100.00;99768.50;4246965;33;20060;-69
2022/10/10 02:57:01;;;;;;;17.98;10.88;;;;;;;8.30;100.00;99815.91;4250544;33;20071;-69
2022/10/10 02:59:27;;;;;;;17.75;10.27;;;;;;;7.86;100.00;99772.00;4249754;33;20516;-70
2022/10/10 03:01:54;;;;;;;22.13;11.40;;;;;;;8.28;100.00;99809.13;4233876;33;20167;-70
2022/10/10 03:04:20;;;;;;;23.30;10.93;;;;;;;8.25;100.00;99810.37;4222452;34;21173;-68
2022/10/10 03:06:46;;;;;;;24.15;10.68;;;;;;;7.86;100.00;99761.25;4222438;34;20027;-69
2022/10/10 03:09:13;;;;;;;18.75;10.57;;;;;;;7.97;100.00;99821.44;4222428;34;20035;-69
2022/10/10 03:11:40;;;;;;;18.62;10.95;;;;;;;8.27;100.00;99808.31;4222046;34;20053;-69
2022/10/10 03:14:06;;;;;;;18.25;9.85;;;;;;;8.11;100.00;99760.53;4219876;34;20069;-71
2022/10/10 03:16:33;;;;;;;13.02;8.40;;;;;;;8.35;100.00;99801.84;4222488;33;20485;-70
2022/10/10 03:18:59;;;;;;;17.20;9.38;;;;;;;8.50;100.00;99777.41;4226088;33;20072;-70
2022/10/10 03:21:25;;;;;;;17.23;10.75;;;;;;;8.18;100.00;99759.47;4254083;33;20124;-70
2022/10/10 03:23:52;;;;;;;17.70;9.57;;;;;;;8.33;100.00;99745.72;4243472;33;20395;-70
2022/10/10 03:26:19;;;;;;;24.00;8.98;;;;;;;8.24;100.00;99795.31;4258438;33;20100;-68
2022/10/10 03:28:45;;;;;;;23.70;9.40;;;;;;;8.06;100.00;99738.88;4264934;33;20077;-70
2022/10/10 03:31:11;;;;;;;16.50;9.10;;;;;;;8.40;100.00;99736.81;4264138;33;20059;-70
2022/10/10 03:33:38;;;;;;;12.35;8.45;;;;;;;8.60;100.00;99767.03;4286444;33;20049;-69
2022/10/10 03:36:05;;;;;;;21.30;9.77;;;;;;;8.82;100.00;99769.31;4280697;33;20041;-71
2022/10/10 03:38:31;;;;;;;16.52;9.57;;;;;;;8.54;100.00;99722.28;4278906;33;20381;-70
2022/10/10 03:40:58;;;;;;;12.00;8.35;;;;;;;7.87;100.00;99711.97;4279985;33;20226;-70
2022/10/10 03:43:24;;;;;;;16.45;9.82;;;;;;;8.35;100.00;99722.16;4282947;33;20046;-70
2022/10/10 03:45:51;;;;;;;12.35;8.18;;;;;;;8.07;100.00;99709.16;4300109;33;20034;-71
2022/10/10 03:48:17;;;;;;;21.48;10.50;;;;;;;8.99;100.00;99754.28;4297580;33;20062;-75
2022/10/10 03:50:44;;;;;;;19.35;9.25;;;;;;;8.46;100.00;99749.41;4279225;33;20034;-70
2022/10/10 03:53:10;;;;;;;16.67;9.15;;;;;;;8.69;100.00;99749.59;4277243;33;20038;-70
2022/10/10 03:55:41;;;;;;;16.75;9.60;;;;;;;8.61;100.00;99741.00;4278438;33;20376;-71
2022/10/10 03:58:11;;;;;;;15.75;8.73;;;;;;;8.05;100.00;99721.97;4278544;33;20395;-70
2022/10/10 04:00:38;;;;;;;17.33;9.45;;;;;;;8.12;100.00;99719.25;4261387;33;20072;-70
2022/10/10 04:03:05;;;;;;;21.15;9.93;;;;;;;8.71;100.00;99750.22;4265189;33;20054;-70
2022/10/10 04:05:33;;;;;;;14.75;8.45;;;;;;;8.24;100.00;99714.81;4265009;33;20022;-70
2022/10/10 04:08:00;;;;;;;19.60;8.73;;;;;;;8.36;100.00;99766.75;4258858;33;20484;-70
2022/10/10 04:10:26;;;;;;;21.15;8.70;;;;;;;8.09;100.00;99701.75;4291457;33;20033;-73
2022/10/10 04:12:52;;;;;;;15.10;8.23;;;;;;;8.65;100.00;99752.97;4308312;33;20056;-70
2022/10/10 04:15:19;;;;;;;19.65;9.15;;;;;;;8.92;100.00;99753.53;4279733;33;20076;-70
2022/10/10 04:17:45;;;;;;;21.77;10.18;;;;;;;8.47;100.00;99716.12;4255079;33;20092;-70
2022/10/10 04:20:11;;;;;;;20.17;9.30;;;;;;;8.28;100.00;99701.78;4250372;33;20045;-70
2022/10/10 04:22:38;;;;;;;21.70;9.65;;;;;;;8.47;100.00;99757.22;4232863;33;20429;-72
2022/10/10 04:25:05;;;;;;;18.55;8.68;;;;;;;8.65;100.00;99755.66;4244274;33;20050;-70
2022/10/10 04:27:31;;;;;;;15.68;8.02;;;;;;;8.51;100.00;99730.75;4236726;33;20058;-70
2022/10/10 04:29:57;;;;;;;17.73;8.52;;;;;;;8.71;100.00;99731.41;4235971;33;20084;-71
2022/10/10 04:32:24;;;;;;;18.60;8.68;;;;;;;8.30;100.00;99699.72;4257350;33;20060;-72
2022/10/10 04:34:50;;;;;;;25.90;10.75;;;;;;;8.56;100.00;99700.59;4267092;33;20344;-69
2022/10/10 04:37:16;;;;;;;21.12;10.32;;;;;;;8.81;100.00;99740.84;4267693;33;20034;-69
2022/10/10 04:39:43;;;;;;;15.98;9.57;;;;;;;8.18;100.00;99699.59;4267336;33;20034;-70
2022/10/10 04:42:10;;;;;;;13.07;9.73;;;;;;;8.10;100.00;99742.78;4256210;33;20178;-68
2022/10/10 04:44:36;;;;;;;15.13;8.35;;;;;;;8.46;100.00;99733.28;4264100;33;20059;-70
2022/10/10 04:47:03;;;;;;;15.82;8.55;;;;;;;8.52;100.00;99732.38;4265853;33;20050;-69
2022/10/10 04:49:29;;;;;;;14.90;8.90;;;;;;;8.43;100.00;99696.13;4267227;33;20137;-68
2022/10/10 04:51:56;;;;;;;13.77;8.63;;;;;;;8.69;100.00;99727.31;4293482;33;20036;-68
2022/10/10 04:54:22;;;;;;;17.25;10.13;;;;;;;8.54;100.00;99731.12;4284419;33;20037;-69
2022/10/10 04:56:49;;;;;;;19.42;9.20;;;;;;;8.59;100.00;99722.44;4282544;33;20060;-74
2022/10/10 04:59:15;;;;;;;14.73;8.05;;;;;;;8.09;100.00;99711.63;4298763;33;20033;-69
2022/10/10 05:01:42;;;;;;;20.15;8.90;;;;;;;8.25;100.00;99727.22;4306512;33;20056;-69
2022/10/10 05:04:08;;;;;;;20.40;8.00;;;;;;;7.85;100.00;99679.22;4309890;33;20452;-69
2022/10/10 05:06:35;;;;;;;16.90;8.73;;;;;;;8.53;100.00;99728.69;4309403;33;20053;-69
2022/10/10 05:09:01;;;;;;;19.30;8.35;;;;;;;8.61;100.00;99717.66;4307421;33;20028;-70
2022/10/10 05:11:28;;;;;;;22.62;8.55;;;;;;;8.89;100.00;99717.19;4307901;33;20974;-69
2022/10/10 05:13:54;;;;;;;28.30;8.98;;;;;;;8.97;100.00;99717.97;4309854;33;20125;-70
2022/10/10 05:16:20;;;;;;;14.63;7.65;;;;;;;8.56;100.00;99690.66;4308864;33;20106;-70
2022/10/10 05:18:47;;;;;;;17.17;8.38;;;;;;;8.35;100.00;99668.50;4308450;33;20119;-73
2022/10/10 05:21:13;;;;;;;17.67;7.75;;;;;;;8.49;100.00;99706.00;4308051;33;20525;-70
2022/10/10 05:23:42;;;;;;;18.45;7.90;;;;;;;9.24;100.00;99707.75;4307792;33;20055;-69
2022/10/10 05:26:09;;;;;;;22.55;8.57;;;;;;;9.11;100.00;99707.88;4307208;33;20064;-69
2022/10/10 05:28:36;;;;;;;16.90;8.73;;;;;;;8.36;100.00;99664.78;4305878;33;20041;-69
2022/10/10 05:31:04;;;;;;;19.65;8.27;;;;;;;8.36;100.00;99702.38;4306629;33;20086;-69
2022/10/10 05:33:31;;;;;;;16.95;7.80;;;;;;;8.66;100.00;99708.94;4319629;33;20502;-69
2022/10/10 05:36:06;;;;;;;13.70;7.62;;;;;;;8.83;100.00;99701.16;4323659;33;20074;-69
2022/10/10 05:38:33;;;;;;;15.82;7.60;;;;;;;8.99;100.00;99705.94;4289304;33;20067;-69
2022/10/10 05:41:00;;;;;;;17.10;7.93;;;;;;;8.52;100.00;99662.59;4292901;33;20099;-69
2022/10/10 05:43:26;;;;;;;17.65;7.65;;;;;;;8.52;100.00;99706.38;4295164;33;20037;-69
2022/10/10 05:45:53;;;;;;;15.10;8.25;;;;;;;8.35;100.00;99705.25;4291886;33;20044;-68
2022/10/10 05:48:19;;;;;;;13.65;7.18;;;;;;;8.76;100.00;99697.69;4294770;33;20064;-70
2022/10/10 05:50:51;;;;;;;18.15;8.43;;;;;;;8.73;100.00;99681.00;4289606;33;20075;-71
2022/10/10 05:53:17;;;;;;;15.23;7.05;;;;;;;8.64;100.00;99668.91;4290182;33;20428;-70
2022/10/10 05:55:44;;;;;;;10.57;7.60;;;;;;;8.80;100.00;99658.63;4292573;33;20394;-70
2022/10/10 05:58:12;;;;;;;8.55;6.00;;;;;;;9.04;100.00;99718.72;4292907;33;20245;-71
2022/10/10 06:00:40;;;;;;;14.38;7.93;;;;;;;9.18;100.00;99714.03;4290975;33;20045;-71
2022/10/10 06:03:07;;;;;;;14.93;6.93;;;;;;;9.34;100.00;99713.41;4293267;33;20057;-71
2022/10/10 06:05:35;;;;;;;12.18;6.40;;;;;;;8.72;100.00;99627.53;4304112;33;20071;-70
2022/10/10 06:08:01;;;;;;;10.45;6.03;;;;;;;9.45;100.00;99709.97;4304718;33;20044;-74
2022/10/10 06:10:28;;;;;;;18.35;7.15;;;;;;;9.55;100.00;99708.62;4303071;33;20071;-78
2022/10/10 06:12:54;;;;;;;9.27;5.95;;;;;;;9.73;100.00;99708.59;4307032;33;20036;-70
2022/10/10 06:15:21;;;;;;;10.73;6.62;;;;;;;9.27;100.00;99707.31;4277886;33;20384;-72
2022/10/10 06:17:48;;;;;;;15.07;7.25;;;;;;;9.24;100.00;99713.13;4280411;33;20033;-71
2022/10/10 06:20:14;;;;;;;10.00;7.07;;;;;;;9.47;100.00;99679.38;4279827;33;20413;-70
2022/10/10 06:22:40;;;;;;;10.85;6.82;;;;;;;9.21;100.00;99708.19;4279506;33;20107;-77
2022/10/10 06:25:07;;;;;;;12.32;7.40;;;;;;;9.15;100.00;99682.22;4278660;33;20492;-71
2022/10/10 06:27:34;;;;;;;8.80;6.20;;;;;;;9.17;100.00;99690.88;4280951;33;20075;-71
2022/10/10 06:30:00;;;;;;;11.00;7.20;;;;;;;9.39;100.00;99704.69;4279244;33;20038;-73
2022/10/10 06:32:27;;;;;;;14.55;7.05;;;;;;;9.59;100.00;99688.31;4279803;33;20063;-71
2022/10/10 06:34:53;;;;;;;13.90;6.40;;;;;;;9.57;100.00;99672.41;4249322;33;20377;-77
2022/10/10 06:37:19;;;;;;;12.07;6.90;;;;;;;10.08;100.00;99707.88;4249632;33;20030;-73
2022/10/10 06:39:46;;;;;;;13.40;7.20;;;;;;;9.76;100.00;99699.25;4251586;33;20057;-72
2022/10/10 06:42:12;;;;;;;7.75;5.65;;;;;;;9.49;100.00;99709.53;4261624;33;20083;-71
2022/10/10 06:44:39;;;;;;;10.70;5.70;;;;;;;9.99;100.00;99710.09;4265087;33;20075;-71
2022/10/10 06:47:07;;;;;;;17.67;6.20;;;;;;;9.44;100.00;99659.13;4261899;33;20088;-71
2022/10/10 06:49:33;;;;;;;10.20;6.25;;;;;;;9.82;100.00;99699.13;4253172;33;21048;-69
2022/10/10 06:51:59;;;;;;;17.37;6.37;;;;;;;9.62;100.00;99680.59;4226214;33;20034;-70
2022/10/10 06:54:26;;;;;;;8.10;5.22;;;;;;;10.16;100.00;99683.34;4252068;33;20064;-71
2022/10/10 06:56:52;;;;;;;8.05;5.40;;;;;;;9.73;100.00;99652.13;4250027;33;20057;-70
2022/10/10 06:59:18;;;;;;;17.20;6.70;;;;;;;9.92;100.00;99695.09;4248279;33;20026;-71
2022/10/10 07:01:45;;;;;;;12.68;6.57;;;;;;;10.00;100.00;99668.69;4250698;33;20051;-70
2022/10/10 07:04:13;;;;;;;10.80;5.25;;;;;;;9.72;100.00;99696.19;4237775;33;20072;-70
2022/10/10 07:06:39;;;;;;;7.57;5.53;;;;;;;10.42;100.00;99702.00;4237027;33;20038;-70
2022/10/10 07:09:06;;;;;;;14.05;5.30;;;;;;;10.62;100.00;99686.34;4234533;33;20109;-70
2022/10/10 07:11:32;;;;;;;12.93;5.28;;;;;;;10.03;100.00;99672.78;4220705;34;20501;-70
2022/10/10 07:13:59;;;;;;;12.60;5.20;;;;;;;10.66;100.00;99686.72;4223559;33;20490;-71
2022/10/10 07:16:25;;;;;;;10.52;6.07;;;;;;;10.41;100.00;99682.34;4219253;34;20106;-71
2022/10/10 07:18:52;;;;;;;14.70;5.00;;;;;;;9.89;100.00;99639.06;4223453;34;20043;-73
2022/10/10 07:21:18;;;;;;;12.20;6.03;;;;;;;10.49;100.00;99695.47;4232292;33;20027;-71
2022/10/10 07:26:21;;;;;;;6.47;5.28;;;;;;;10.70;100.00;99693.25;4265947;33;20118;-71
2022/10/10 07:28:48;;;;;;;10.18;5.30;;;;;;;10.60;100.00;99666.91;4265038;33;20034;-77
2022/10/10 07:31:14;;;;;;;13.30;5.47;;;;;;;10.42;100.00;99681.31;4265042;33;20061;-69
2022/10/10 07:33:44;;;;;;;8.13;5.45;;;;;;;10.82;100.00;99680.63;4288802;33;20123;-71
2022/10/10 07:36:12;;;;;;;7.15;4.55;;;;;;;10.61;100.00;99673.13;4280273;33;20067;-71
2022/10/10 07:38:40;;;;;;;9.10;5.45;;;;;;;11.14;100.00;99688.31;4266449;33;20107;-71
2022/10/10 07:41:08;;;;;;;11.30;6.55;;;;;;;10.47;100.00;99624.88;4277006;33;20037;-72
2022/10/10 07:43:36;;;;;;;12.75;4.75;;;;;;;10.79;100.00;99678.38;4266001;33;20947;-69
2022/10/10 07:46:05;;;;;;;7.32;4.57;;;;;;;10.66;100.00;99665.19;4265424;33;20029;-70
2022/10/10 07:48:32;;;;;;;9.10;5.62;;;;;;;10.46;100.00;99662.81;4264731;33;20091;-70
2022/10/10 07:50:59;;;;;;;10.38;5.40;;;;;;;10.54;100.00;99675.94;4266291;33;20076;-71
2022/10/10 07:53:26;;;;;;;6.78;5.30;;;;;;;11.06;100.00;99680.59;4261757;33;20057;-68
2022/10/10 07:55:53;;;;;;;14.35;6.05;;;;;;;10.93;100.00;99680.81;4279974;33;20041;-70
2022/10/10 07:58:19;;;;;;;13.00;5.97;;;;;;;10.71;100.00;99630.28;4280574;33;20042;-70
2022/10/10 08:00:45;;;;;;;10.45;5.80;;;;;;;11.36;100.00;99679.56;4281034;33;20103;-73
2022/10/10 08:03:13;;;;;;;10.05;5.72;;;;;;;10.63;100.00;99627.94;4281458;33;20037;-70
2022/10/10 08:05:40;;;;;;;12.02;5.00;;;;;;;10.33;100.00;99628.88;4280319;33;20025;-74
2022/10/10 08:08:10;;;;;;;10.10;5.32;;;;;;;11.03;100.00;99676.50;4293228;33;20046;-70
2022/10/10 08:10:41;;;;;;;19.35;6.47;;;;;;;10.79;100.00;99615.62;4295938;33;20496;-69
2022/10/10 08:13:07;;;;;;;9.32;5.40;;;;;;;10.97;100.00;99676.62;4296387;33;20041;-70
2022/10/10 08:15:33;;;;;;;16.27;6.05;;;;;;;11.28;100.00;99672.69;4314476;33;20040;-74
2022/10/10 08:18:00;;;;;;;7.80;5.53;;;;;;;11.04;100.00;99623.41;4325669;33;20070;-70
2022/10/10 08:20:26;;;;;;;8.15;5.15;;;;;;;11.23;100.00;99665.31;4340228;33;20062;-71
2022/10/10 08:22:53;;;;;;;5.95;5.35;;;;;;;10.79;100.00;99616.44;4339533;33;20098;-71
2022/10/10 08:25:19;;;;;;;8.60;5.12;;;;;;;11.20;100.00;99644.25;4324266;33;20058;-71
2022/10/10 08:27:46;;;;;;;10.38;4.97;;;;;;;11.00;100.00;99643.81;4328740;33;20056;-72
2022/10/10 08:30:17;;;;;;;8.30;4.82;;;;;;;11.55;100.00;99659.47;4326120;33;20064;-71
2022/10/10 08:32:46;;;;;;;11.60;4.78;;;;;;;11.86;100.00;99638.44;4327500;33;20041;-72
2022/10/10 08:35:14;;;;;;;7.70;4.95;;;;;;;11.94;100.00;99658.84;4326991;33;20036;-72
2022/10/10 08:37:41;;;;;;;16.17;4.43;;;;;;;11.99;100.00;99643.56;4319702;33;20421;-78
2022/10/10 08:40:14;;;;;;;13.35;4.93;;;;;;;12.57;100.00;99651.47;4318103;33;20082;-73
2022/10/10 08:42:48;;;;;;;9.68;4.57;;;;;;;12.60;100.00;99656.38;4311629;33;20068;-71
2022/10/10 08:45:23;;;;;;;9.35;5.25;;;;;;;12.12;100.00;99655.09;4309278;33;20148;-77
2022/10/10 08:47:57;;;;;;;9.00;4.53;;;;;;;12.02;100.00;99646.84;4296686;33;20108;-73
2022/10/10 08:50:31;;;;;;;6.75;4.28;;;;;;;12.54;100.00;99652.81;4294206;33;20049;-69
2022/10/10 08:53:07;;;;;;;9.88;4.10;;;;;;;12.49;100.00;99643.81;4280728;33;20067;-70
2022/10/10 08:55:38;;;;;;;16.40;4.22;;;;;;;12.65;100.00;99604.31;4275702;33;20100;-69
2022/10/10 08:58:15;;;;;;;9.63;5.97;;;;;;;12.68;100.00;99642.50;4256792;33;20087;-70
2022/10/10 09:00:53;;;;;;;7.80;5.10;;;;;;;12.57;100.00;99629.88;4265928;33;20441;-69
2022/10/10 09:03:29;;;;;;;6.35;3.90;;;;;;;12.62;100.00;99638.06;4264157;33;20026;-69
2022/10/10 09:06:18;;;;;;;9.73;4.37;;;;;;;12.62;100.00;99605.66;4250823;33;20072;-69
2022/10/10 09:09:10;;;;;;;7.60;3.42;;;;;;;12.63;100.00;99584.84;4250490;33;20068;-74
2022/10/10 09:12:06;;;;;;;8.73;4.80;;;;;;;13.06;100.00;99594.84;4249270;33;20041;-69
2022/10/10 09:14:50;;;;;;;5.95;3.87;;;;;;;13.58;100.00;99633.34;4219467;33;20083;-69
2022/10/10 09:17:38;;;;;;;13.88;4.28;;;;;;;13.75;100.00;99623.22;4196325;34;20155;-68
2022/10/10 09:20:31;;;;;;;11.73;3.22;;;;;;;12.96;100.00;99629.88;4232302;33;20839;-68
2022/10/10 09:23:02;;;;;;;9.68;3.80;;;;;;;13.90;100.00;99621.75;4225589;33;20050;-70
2022/10/10 09:25:40;;;;;;;8.07;3.60;;;;;;;13.49;100.00;99624.84;4193382;34;20414;-69
2022/10/10 09:28:14;;;;;;;7.05;3.53;;;;;;;13.55;100.00;99617.59;4201158;34;20131;-73
2022/10/10 09:30:48;;;;;;;5.43;3.03;;;;;;;13.92;100.00;99611.47;4193562;34;20079;-69
2022/10/10 09:33:27;;;;;;;5.78;3.53;;;;;;;13.20;100.00;99618.81;4196952;34;20031;-68
2022/10/10 09:35:58;;;;;;;5.90;3.25;;;;;;;13.08;100.00;99570.25;4167259;34;20048;-68
2022/10/10 09:38:40;;;;;;;6.12;3.17;;;;;;;13.24;100.00;99573.97;4161959;34;20044;-70
2022/10/10 09:41:22;;;;;;;8.03;3.60;;;;;;;13.81;100.00;99621.38;4161214;34;20206;-69
2022/10/10 09:43:58;;;;;;;14.95;3.45;;;;;;;13.84;100.00;99615.44;4179836;34;20552;-69
2022/10/10 09:46:26;;;;;;;6.45;3.30;;;;;;;14.21;100.00;99587.56;4190981;34;20031;-75
2022/10/10 09:48:53;;;;;;;14.15;3.17;;;;;;;14.04;100.00;99586.91;4223934;33;20076;-69
2022/10/10 09:51:20;;;;;;;9.93;3.08;;;;;;;14.37;100.00;99547.06;4237203;33;20054;-68
2022/10/10 09:53:48;;;;;;;6.50;2.87;;;;;;;14.24;100.00;99580.84;4240158;33;20227;-69
2022/10/10 09:56:19;;;;;;;4.87;3.40;;;;;;;13.53;100.00;99568.34;4256824;33;20068;-69
2022/10/10 09:58:47;;;;;;;5.68;3.45;;;;;;;14.54;100.00;99601.91;4268829;33;20041;-70
2022/10/10 10:01:20;;;;;;;6.05;3.35;;;;;;;14.80;100.00;99600.16;4279837;33;20071;-69
2022/10/10 10:04:08;;;;;;;7.43;4.20;;;;;;;14.98;100.00;99589.94;4280039;33;20179;-69
2022/10/10 10:06:35;;;;;;;5.65;2.72;;;;;;;14.65;100.00;99586.53;4282498;33;20096;-68
2022/10/10 10:09:05;;;;;;;3.95;2.50;;;;;;;13.98;100.00;99577.94;4294807;33;20041;-69
2022/10/10 10:11:34;;;;;;;6.82;2.85;;;;;;;14.61;100.00;99596.25;4281912;33;20053;-70
2022/10/10 10:14:02;;;;;;;3.75;2.70;;;;;;;14.28;100.00;99552.13;4280154;33;20167;-74
2022/10/10 10:16:36;;;;;;;5.07;3.50;;;;;;;14.73;100.00;99587.91;4277310;33;20041;-68
2022/10/10 10:19:06;;;;;;;5.10;3.00;;;;;;;14.95;100.00;99552.50;4275720;33;20211;-69
2022/10/10 10:21:49;;;;;;;11.73;3.72;;;;;;;15.43;100.00;99564.03;4275531;33;20393;-71
2022/10/10 10:24:23;;;;;;;5.90;3.30;;;;;;;15.11;100.00;99588.63;4278301;33;20528;-69
2022/10/10 10:26:50;;;;;;;6.43;2.95;;;;;;;14.98;100.00;99579.09;4279290;33;20453;-69
2022/10/10 10:29:22;;;;;;;11.65;2.87;;;;;;;15.77;100.00;99574.44;4280091;33;20041;-69
2022/10/10 10:31:57;;;;;;;10.93;2.53;;;;;;;15.40;100.00;99561.88;4277786;33;20375;-75
2022/10/10 10:34:42;;;;;;;15.65;2.60;;;;;;;15.40;100.00;99570.00;4279621;33;20050;-69
2022/10/10 10:37:32;;;;;;;8.48;2.65;;;;;;;16.26;100.00;99565.72;4279996;33;20029;-67
2022/10/10 10:40:14;;;;;;;5.93;2.55;;;;;;;15.99;100.00;99555.16;4285962;33;20069;-68
2022/10/10 10:42:49;;;;;;;5.82;2.50;;;;;;;15.75;100.00;99557.56;4293682;33;20073;-69
2022/10/10 10:45:15;;;;;;;5.90;3.17;;;;;;;15.73;100.00;99562.44;4291999;33;20063;-74
2022/10/10 10:48:06;;;;;;;5.60;2.47;;;;;;;15.69;100.00;99562.16;4289983;33;20143;-70
2022/10/10 10:50:51;;;;;;;10.57;2.87;;;;;;;16.15;100.00;99547.81;4293510;33;20056;-70
2022/10/10 10:53:38;;;;;;;7.07;3.22;;;;;;;15.87;100.00;99547.25;4293406;33;20044;-69
2022/10/10 10:56:30;;;;;;;3.95;2.50;;;;;;;16.54;99.59;99539.00;4278502;33;20065;-69
2022/10/10 10:59:27;;;;;;;3.62;2.35;;;;;;;16.95;97.27;99536.16;4279228;33;20075;-68
2022/10/10 11:02:06;;;;;;;12.90;2.60;;;;;;;17.32;92.75;99526.69;4283788;33;20049;-70
2022/10/10 11:05:15;;;;;;;6.68;2.65;;;;;;;17.72;89.08;99513.06;4295072;33;20064;-68
2022/10/10 11:07:50;;;;;;;12.50;2.60;;;;;;;17.42;90.79;99483.09;4290078;33;20946;-68
2022/10/10 11:10:32;;;;;;;4.25;2.40;;;;;;;17.32;80.57;99518.53;4294691;33;20295;-69
2022/10/10 11:13:25;;;;;;;3.87;2.25;;;;;;;17.29;86.76;99516.38;4292847;33;20341;-70
2022/10/10 11:15:58;;;;;;;8.85;2.50;;;;;;;16.93;89.29;99475.78;4286604;33;20072;-69
2022/10/10 11:18:36;;;;;;;5.03;2.47;;;;;;;17.89;82.83;99497.16;4294877;33;20045;-77
2022/10/10 11:21:16;;;;;;;5.05;2.87;;;;;;;17.49;85.29;99509.19;4295375;33;20420;-72
2022/10/10 11:24:11;;;;;;;4.18;2.40;;;;;;;17.39;85.89;99502.69;4296102;33;20103;-70
2022/10/10 11:26:49;;;;;;;13.38;2.10;;;;;;;17.54;85.50;99501.75;4294563;33;20078;-73
2022/10/10 11:29:24;;;;;;;10.45;2.45;;;;;;;18.14;87.52;99459.81;4296837;33;20059;-69
2022/10/10 11:31:56;;;;;;;3.05;2.17;;;;;;;17.10;86.47;99490.91;4291838;33;20067;-78
2022/10/10 11:34:37;;;;;;;2.50;2.00;;;;;;;16.46;88.95;99493.38;4300113;33;20095;-70
2022/10/10 11:37:09;;;;;;;10.40;2.10;;;;;;;17.01;86.83;99472.47;4295596;33;20055;-71
2022/10/10 11:39:55;;;;;;;15.60;3.45;;;;;;;17.37;83.30;99471.41;4292501;33;20339;-70
2022/10/10 11:42:34;;;;;;;3.17;2.15;;;;;;;16.61;86.51;99474.28;4299252;33;20037;-69
2022/10/10 11:45:20;;;;;;;4.12;2.08;;;;;;;17.60;85.71;99478.03;4295403;33;20434;-70